createdAt,value
2022-09-26T00:00:50.514Z,9.85
2022-09-26T00:03:17.138Z,9.75
2022-09-26T00:05:43.643Z,10.13
2022-09-26T00:08:10.165Z,9.38
2022-09-26T00:10:36.700Z,10.00
2022-09-26T00:13:03.289Z,9.05
2022-09-26T00:15:29.803Z,9.27
2022-09-26T00:17:56.348Z,8.68
2022-09-26T00:20:22.876Z,8.75
2022-09-26T00:22:49.425Z,8.70
2022-09-26T00:25:16.027Z,10.93
2022-09-26T00:27:42.594Z,10.27
2022-09-26T00:30:09.825Z,9.95
2022-09-26T00:32:36.370Z,9.50
2022-09-26T00:35:02.914Z,11.00
2022-09-26T00:37:29.469Z,10.48
2022-09-26T00:39:56.815Z,10.10
2022-09-26T00:42:24.852Z,10.75
2022-09-26T00:44:56.794Z,11.10
2022-09-26T00:47:44.892Z,11.82
2022-09-26T00:50:21.155Z,13.48
2022-09-26T00:52:58.187Z,11.32
2022-09-26T00:55:30.206Z,12.75
2022-09-26T00:58:04.518Z,0.10
2022-09-26T01:00:31.782Z,0.10
2022-09-26T01:02:58.753Z,0.10
2022-09-26T01:05:25.910Z,0.10
2022-09-26T01:07:56.143Z,0.10
2022-09-26T01:10:22.854Z,0.10
2022-09-26T01:12:49.361Z,0.10
2022-09-26T01:15:15.981Z,0.10
2022-09-26T01:17:44.341Z,0.00
2022-09-26T01:20:36.194Z,0.10
2022-09-26T01:23:14.982Z,0.10
2022-09-26T01:25:53.734Z,0.10
2022-09-26T01:28:38.287Z,0.10
2022-09-26T01:31:21.082Z,0.10
2022-09-26T01:33:51.386Z,0.10
2022-09-26T01:36:41.821Z,0.10
2022-09-26T01:39:24.768Z,0.00
2022-09-26T01:42:08.294Z,0.05
2022-09-26T01:45:14.802Z,0.10
2022-09-26T01:47:51.034Z,0.10
2022-09-26T01:50:33.828Z,0.10
2022-09-26T01:53:03.083Z,0.10
2022-09-26T01:55:52.027Z,0.08
2022-09-26T01:58:28.540Z,0.10
2022-09-26T02:00:58.438Z,0.10
2022-09-26T02:03:29.234Z,0.10
2022-09-26T02:06:25.189Z,0.10
2022-09-26T02:09:04.446Z,0.10
2022-09-26T02:11:31.151Z,0.10
2022-09-26T02:14:03.943Z,0.10
2022-09-26T02:16:34.765Z,0.10
2022-09-26T02:19:10.257Z,0.10
2022-09-26T02:21:37.186Z,0.00
2022-09-26T02:24:03.901Z,0.10
2022-09-26T02:26:30.605Z,0.00
2022-09-26T02:29:00.638Z,0.10
2022-09-26T02:31:32.352Z,0.10
2022-09-26T02:33:59.011Z,0.10
2022-09-26T02:36:27.541Z,0.10
2022-09-26T02:38:54.131Z,0.10
2022-09-26T02:42:09.274Z,0.10
2022-09-26T02:44:57.660Z,0.03
2022-09-26T02:48:01.169Z,0.10
2022-09-26T02:50:33.599Z,0.10
2022-09-26T02:53:12.879Z,0.05
2022-09-26T02:56:09.949Z,0.10
2022-09-26T02:58:59.684Z,0.10
2022-09-26T03:01:31.731Z,0.10
2022-09-26T03:04:05.569Z,0.10
2022-09-26T03:06:37.195Z,0.10
2022-09-26T03:09:04.937Z,0.10
2022-09-26T03:11:33.128Z,0.10
2022-09-26T03:14:00.577Z,0.10
2022-09-26T03:16:35.747Z,0.10
2022-09-26T03:19:12.111Z,0.03
2022-09-26T03:21:39.078Z,0.10
2022-09-26T03:24:06.235Z,0.10
2022-09-26T03:26:34.745Z,0.10
2022-09-26T03:29:04.038Z,0.10
2022-09-26T03:31:32.878Z,0.10
2022-09-26T03:34:09.947Z,0.10
2022-09-26T03:36:39.849Z,0.10
2022-09-26T03:39:08.662Z,0.00
2022-09-26T03:41:42.339Z,0.10
2022-09-26T03:44:29.639Z,0.10
2022-09-26T03:47:11.183Z,0.10
2022-09-26T03:49:42.390Z,0.10
2022-09-26T03:52:12.402Z,0.10
2022-09-26T03:54:39.732Z,0.10
2022-09-26T03:57:06.579Z,0.10
2022-09-26T03:59:37.360Z,0.10
2022-09-26T04:02:05.578Z,0.00
2022-09-26T04:04:36.807Z,0.10
2022-09-26T04:07:04.003Z,0.10
2022-09-26T04:09:31.134Z,0.10
2022-09-26T04:11:57.890Z,0.10
2022-09-26T04:14:24.477Z,0.10
2022-09-26T04:16:55.616Z,0.10
2022-09-26T04:19:34.329Z,0.10
2022-09-26T04:22:01.766Z,0.10
2022-09-26T04:24:31.627Z,0.10
2022-09-26T04:26:58.732Z,0.10
2022-09-26T04:29:26.650Z,0.10
2022-09-26T04:32:22.217Z,0.10
2022-09-26T04:35:07.683Z,0.10
2022-09-26T04:37:37.178Z,0.10
2022-09-26T04:40:04.754Z,0.10
2022-09-26T04:42:35.291Z,0.10
2022-09-26T04:45:02.029Z,0.10
2022-09-26T04:47:28.574Z,0.10
2022-09-26T04:50:13.547Z,0.10
2022-09-26T04:52:41.163Z,0.10
2022-09-26T04:55:08.227Z,0.10
2022-09-26T04:57:38.101Z,0.10
2022-09-26T05:00:07.258Z,0.10
2022-09-26T05:02:34.093Z,0.10
2022-09-26T05:05:00.849Z,0.10
2022-09-26T05:07:29.538Z,0.10
2022-09-26T05:09:56.138Z,0.10
2022-09-26T05:12:24.224Z,0.10
2022-09-26T05:14:54.109Z,0.10
2022-09-26T05:17:21.632Z,0.10
2022-09-26T05:19:49.180Z,0.10
2022-09-26T05:22:25.608Z,0.10
2022-09-26T05:25:12.120Z,0.00
2022-09-26T05:27:39.989Z,0.10
2022-09-26T05:30:07.305Z,0.10
2022-09-26T05:32:34.293Z,0.10
2022-09-26T05:35:00.900Z,0.10
2022-09-26T05:37:29.976Z,0.10
2022-09-26T05:40:15.367Z,0.10
2022-09-26T05:42:47.837Z,0.10
2022-09-26T05:45:15.747Z,0.10
2022-09-26T05:47:43.012Z,0.10
2022-09-26T05:50:10.341Z,0.10
2022-09-26T05:52:39.368Z,0.10
2022-09-26T05:55:07.497Z,0.10
2022-09-26T05:58:07.639Z,0.10
2022-09-26T06:00:52.788Z,0.10
2022-09-26T06:03:19.993Z,0.00
2022-09-26T06:06:10.553Z,0.10
2022-09-26T06:08:38.594Z,0.10
2022-09-26T06:11:31.109Z,0.10
2022-09-26T06:14:00.702Z,0.10
2022-09-26T06:16:28.726Z,0.10
2022-09-26T06:18:58.462Z,0.08
2022-09-26T06:21:25.063Z,0.05
2022-09-26T06:23:55.813Z,0.10
2022-09-26T06:26:26.061Z,0.10
2022-09-26T06:28:56.959Z,0.00
2022-09-26T06:31:25.478Z,0.10
2022-09-26T06:34:12.147Z,0.10
2022-09-26T06:36:54.989Z,0.10
2022-09-26T06:39:22.069Z,0.10
2022-09-26T06:41:49.037Z,0.10
2022-09-26T06:44:28.651Z,0.10
2022-09-26T06:47:13.827Z,0.00
2022-09-26T06:49:40.475Z,0.10
2022-09-26T06:52:12.195Z,0.10
2022-09-26T06:54:38.790Z,0.00
2022-09-26T06:57:05.587Z,0.00
2022-09-26T06:59:34.071Z,0.00
2022-09-26T07:02:11.239Z,0.00
2022-09-26T07:04:52.402Z,0.00
2022-09-26T07:07:39.803Z,0.00
2022-09-26T07:10:08.453Z,0.00
2022-09-26T07:12:44.146Z,0.00
2022-09-26T07:15:13.832Z,0.10
2022-09-26T07:17:41.555Z,0.00
2022-09-26T07:20:33.742Z,0.10
2022-09-26T07:23:16.955Z,0.10
2022-09-26T07:25:48.042Z,0.00
2022-09-26T07:28:14.933Z,0.00
2022-09-26T07:30:45.344Z,0.10
2022-09-26T07:33:17.762Z,0.00
2022-09-26T07:35:51.189Z,0.00
2022-09-26T07:38:19.290Z,0.00
2022-09-26T07:40:47.431Z,0.00
2022-09-26T07:43:26.785Z,0.00
2022-09-26T07:46:19.379Z,0.00
2022-09-26T07:49:07.958Z,0.00
2022-09-26T07:51:39.133Z,0.00
2022-09-26T07:54:09.780Z,0.00
2022-09-26T07:56:59.739Z,0.00
2022-09-26T07:59:53.913Z,0.00
2022-09-26T08:02:46.786Z,0.00
2022-09-26T08:05:20.141Z,0.00
2022-09-26T08:07:48.690Z,0.00
2022-09-26T08:10:35.109Z,0.00
2022-09-26T08:13:13.829Z,0.00
2022-09-26T08:16:05.692Z,0.00
2022-09-26T08:18:36.766Z,0.00
2022-09-26T08:21:05.813Z,0.00
2022-09-26T08:23:33.892Z,0.00
2022-09-26T08:26:23.292Z,0.00
2022-09-26T08:28:54.826Z,0.00
2022-09-26T08:31:21.526Z,0.00
2022-09-26T08:33:48.347Z,0.00
2022-09-26T08:36:17.846Z,0.00
2022-09-26T08:39:12.703Z,0.00
2022-09-26T08:42:36.180Z,0.00
2022-09-26T08:45:47.289Z,0.00
2022-09-26T08:48:50.114Z,0.00
2022-09-26T08:51:28.283Z,0.00
2022-09-26T08:54:05.140Z,0.00
2022-09-26T08:56:36.372Z,0.00
2022-09-26T08:59:06.138Z,0.00
2022-09-26T09:01:39.402Z,0.00
2022-09-26T09:04:22.455Z,0.00
2022-09-26T09:06:53.427Z,0.00
2022-09-26T09:09:20.879Z,0.00
2022-09-26T09:12:26.218Z,0.00
2022-09-26T09:15:26.885Z,0.00
2022-09-26T09:18:41.251Z,0.00
2022-09-26T09:21:42.159Z,0.00
2022-09-26T09:24:39.830Z,0.00
2022-09-26T09:30:18.559Z,0.00
2022-09-26T09:33:21.924Z,0.00
2022-09-26T09:36:15.055Z,0.00
2022-09-26T09:39:08.461Z,0.00
2022-09-26T09:42:00.297Z,0.00
2022-09-26T09:44:44.336Z,0.00
2022-09-26T09:47:15.417Z,0.00
2022-09-26T09:49:43.524Z,0.00
2022-09-26T09:52:39.147Z,0.00
2022-09-26T09:55:12.579Z,0.00
2022-09-26T09:57:55.434Z,0.00
2022-09-26T10:00:24.211Z,0.00
2022-09-26T10:03:29.646Z,0.00
2022-09-26T10:06:01.696Z,0.00
2022-09-26T10:08:42.855Z,0.00
2022-09-26T10:11:36.397Z,0.00
2022-09-26T10:14:42.648Z,0.00
2022-09-26T10:17:09.234Z,0.00
2022-09-26T10:19:43.476Z,0.00
2022-09-26T10:22:44.862Z,0.00
2022-09-26T10:25:25.690Z,0.00
2022-09-26T10:27:55.196Z,0.00
2022-09-26T10:30:30.257Z,0.00
2022-09-26T10:33:04.712Z,0.00
2022-09-26T10:35:39.881Z,0.00
2022-09-26T10:38:18.261Z,0.00
2022-09-26T10:40:54.910Z,0.00
2022-09-26T10:43:30.791Z,0.00
2022-09-26T10:46:17.388Z,0.00
2022-09-26T10:49:04.037Z,0.00
2022-09-26T10:51:37.347Z,0.00
2022-09-26T10:54:13.200Z,0.00
2022-09-26T10:56:47.186Z,0.00
2022-09-26T10:59:18.168Z,0.00
2022-09-26T11:01:51.411Z,0.00
2022-09-26T11:04:41.243Z,0.00
2022-09-26T11:07:46.318Z,0.00
2022-09-26T11:10:27.619Z,0.00
2022-09-26T11:13:19.032Z,0.00
2022-09-26T11:16:03.028Z,0.00
2022-09-26T11:18:46.686Z,0.00
2022-09-26T11:21:39.507Z,0.00
2022-09-26T11:24:16.121Z,0.00
2022-09-26T11:26:59.884Z,0.00
2022-09-26T11:29:39.592Z,0.00
2022-09-26T11:32:24.130Z,0.00
2022-09-26T11:35:02.553Z,0.00
2022-09-26T11:37:55.119Z,0.00
2022-09-26T11:40:41.341Z,0.00
2022-09-26T11:43:26.334Z,0.00
2022-09-26T11:46:09.589Z,0.00
2022-09-26T11:49:24.351Z,0.00
2022-09-26T11:52:38.067Z,0.00
2022-09-26T11:55:28.165Z,0.00
2022-09-26T11:58:06.200Z,0.00
2022-09-26T12:00:51.244Z,0.00
2022-09-26T12:03:56.189Z,0.00
2022-09-26T12:06:33.515Z,0.00
2022-09-26T12:09:03.165Z,0.00
2022-09-26T12:11:46.637Z,0.00
2022-09-26T12:14:44.536Z,0.00
2022-09-26T12:17:36.250Z,0.00
2022-09-26T12:20:14.138Z,0.00
2022-09-26T12:23:19.142Z,0.00
2022-09-26T12:26:03.698Z,0.00
2022-09-26T12:28:48.829Z,0.00
2022-09-26T12:31:28.904Z,0.00
2022-09-26T12:34:25.630Z,0.00
2022-09-26T12:37:17.856Z,0.00
2022-09-26T12:39:47.474Z,0.00
2022-09-26T12:42:26.778Z,0.00
2022-09-26T12:45:28.985Z,0.00
2022-09-26T12:48:23.669Z,0.00
2022-09-26T12:50:53.008Z,0.00
2022-09-26T12:53:31.647Z,0.00
2022-09-26T12:56:05.051Z,0.00
2022-09-26T12:58:50.009Z,0.00
2022-09-26T13:01:43.582Z,0.00
2022-09-26T13:04:39.968Z,0.00
2022-09-26T13:07:20.928Z,0.00
2022-09-26T13:10:15.868Z,0.00
2022-09-26T13:12:53.488Z,0.00
2022-09-26T13:15:24.516Z,0.00
2022-09-26T13:17:57.931Z,0.00
2022-09-26T13:20:33.429Z,0.00
2022-09-26T13:23:12.190Z,0.00
2022-09-26T13:25:49.918Z,0.00
2022-09-26T13:28:24.243Z,0.00
2022-09-26T13:31:02.970Z,0.00
2022-09-26T13:33:41.647Z,0.00
2022-09-26T13:36:09.909Z,0.00
2022-09-26T13:38:51.673Z,0.00
2022-09-26T13:41:48.727Z,0.00
2022-09-26T13:44:33.104Z,0.00
2022-09-26T13:47:17.826Z,0.00
2022-09-26T13:49:57.890Z,0.00
2022-09-26T13:52:32.041Z,0.00
2022-09-26T13:55:20.305Z,0.00
2022-09-26T13:58:03.072Z,0.00
2022-09-26T14:00:35.584Z,0.00
2022-09-26T14:03:16.282Z,0.00
2022-09-26T14:05:46.705Z,0.00
2022-09-26T14:08:44.375Z,0.00
2022-09-26T14:11:30.650Z,0.00
2022-09-26T14:14:18.981Z,0.00
2022-09-26T14:17:09.656Z,0.00
2022-09-26T14:19:39.311Z,0.00
2022-09-26T14:22:25.844Z,0.00
2022-09-26T14:24:58.525Z,0.00
2022-09-26T14:27:36.340Z,0.00
2022-09-26T14:30:26.784Z,0.00
2022-09-26T14:33:02.116Z,0.00
2022-09-26T14:35:34.711Z,0.00
2022-09-26T14:38:09.550Z,0.00
2022-09-26T14:40:37.873Z,0.00
2022-09-26T14:43:10.525Z,0.00
2022-09-26T14:45:37.059Z,0.00
2022-09-26T14:48:15.016Z,0.00
2022-09-26T14:50:53.918Z,0.00
2022-09-26T14:53:22.185Z,0.00
2022-09-26T14:56:16.625Z,0.00
2022-09-26T14:58:49.806Z,0.10
2022-09-26T15:01:25.220Z,0.00
2022-09-26T15:03:58.064Z,0.00
2022-09-26T15:06:27.593Z,0.00
2022-09-26T15:08:55.527Z,0.00
2022-09-26T15:11:37.861Z,0.00
2022-09-26T15:14:19.789Z,0.00
2022-09-26T15:16:50.479Z,0.00
2022-09-26T15:19:42.757Z,0.00
2022-09-26T15:22:30.893Z,0.00
2022-09-26T15:25:30.011Z,0.00
2022-09-26T15:27:56.994Z,0.00
2022-09-26T15:30:27.338Z,0.00
2022-09-26T15:32:57.953Z,0.00
2022-09-26T15:35:27.244Z,0.00
2022-09-26T15:38:09.708Z,0.00
2022-09-26T15:40:38.065Z,0.00
2022-09-26T15:43:10.664Z,0.00
2022-09-26T15:45:46.452Z,0.00
2022-09-26T15:48:25.029Z,0.00
2022-09-26T15:51:07.645Z,0.00
2022-09-26T15:53:45.754Z,0.00
2022-09-26T15:56:16.687Z,0.00
2022-09-26T15:58:51.474Z,0.00
2022-09-26T16:01:23.966Z,0.00
2022-09-26T16:04:05.427Z,0.00
2022-09-26T16:06:35.418Z,0.00
2022-09-26T16:09:13.983Z,0.00
2022-09-26T16:11:59.140Z,0.00
2022-09-26T16:14:42.094Z,0.00
2022-09-26T16:17:25.771Z,0.00
2022-09-26T16:19:58.712Z,0.00
2022-09-26T16:22:38.981Z,0.00
2022-09-26T16:25:17.692Z,0.00
2022-09-26T16:28:08.751Z,0.00
2022-09-26T16:30:41.966Z,0.00
2022-09-26T16:33:08.623Z,0.00
2022-09-26T16:35:37.405Z,0.00
2022-09-26T16:38:25.334Z,0.00
2022-09-26T16:40:57.430Z,0.00
2022-09-26T16:43:31.826Z,0.00
2022-09-26T16:46:14.822Z,0.00
2022-09-26T16:48:42.616Z,0.00
2022-09-26T16:51:28.833Z,0.00
2022-09-26T16:53:59.866Z,0.00
2022-09-26T16:56:27.454Z,0.00
2022-09-26T16:58:56.786Z,0.00
2022-09-26T17:01:42.519Z,0.00
2022-09-26T17:04:16.151Z,0.10
2022-09-26T17:06:42.807Z,0.00
2022-09-26T17:09:21.129Z,0.00
2022-09-26T17:11:50.956Z,0.00
2022-09-26T17:14:23.999Z,0.10
2022-09-26T17:16:58.209Z,0.00
2022-09-26T17:19:27.190Z,0.00
2022-09-26T17:21:54.996Z,0.00
2022-09-26T17:24:24.179Z,0.00
2022-09-26T17:26:55.377Z,0.00
2022-09-26T17:29:26.430Z,0.00
2022-09-26T17:31:55.114Z,0.00
2022-09-26T17:34:23.114Z,0.00
2022-09-26T17:36:51.944Z,0.00
2022-09-26T17:39:22.022Z,0.00
2022-09-26T17:41:50.052Z,0.00
2022-09-26T17:44:18.147Z,0.00
2022-09-26T17:46:48.349Z,0.00
2022-09-26T17:49:25.472Z,0.00
2022-09-26T17:51:54.085Z,0.00
2022-09-26T17:54:24.230Z,0.00
2022-09-26T17:56:51.076Z,0.00
2022-09-26T17:59:23.487Z,0.00
2022-09-26T18:01:56.821Z,0.00
2022-09-26T18:04:27.036Z,0.10
2022-09-26T18:06:56.221Z,0.00
2022-09-26T18:09:23.791Z,0.00
2022-09-26T18:12:00.967Z,0.05
2022-09-26T18:14:31.241Z,0.00
2022-09-26T18:16:59.013Z,0.00
2022-09-26T18:19:25.650Z,0.00
2022-09-26T18:21:55.744Z,0.00
2022-09-26T18:24:27.327Z,0.00
2022-09-26T18:26:57.152Z,0.00
2022-09-26T18:29:37.153Z,0.00
2022-09-26T18:32:06.085Z,0.00
2022-09-26T18:34:32.677Z,0.00
2022-09-26T18:37:00.510Z,0.00
2022-09-26T18:39:27.881Z,0.00
2022-09-26T18:42:01.288Z,0.00
2022-09-26T18:44:28.740Z,0.10
2022-09-26T18:47:00.971Z,0.00
2022-09-26T18:49:30.762Z,0.00
2022-09-26T18:51:57.394Z,0.00
2022-09-26T18:54:25.979Z,0.00
2022-09-26T18:57:11.206Z,0.00
2022-09-26T18:59:37.817Z,0.00
2022-09-26T19:02:20.124Z,0.00
2022-09-26T19:04:46.931Z,0.00
2022-09-26T19:07:21.032Z,0.00
2022-09-26T19:09:48.410Z,0.00
2022-09-26T19:12:17.086Z,0.00
2022-09-26T19:14:44.158Z,0.00
2022-09-26T19:17:11.614Z,0.00
2022-09-26T19:19:38.594Z,0.00
2022-09-26T19:22:10.376Z,0.00
2022-09-26T19:25:00.007Z,0.00
2022-09-26T19:27:49.590Z,0.00
2022-09-26T19:30:18.468Z,0.00
2022-09-26T19:32:49.345Z,0.00
2022-09-26T19:35:39.080Z,0.00
2022-09-26T19:38:17.057Z,0.00
2022-09-26T19:40:48.373Z,0.00
2022-09-26T19:43:15.611Z,0.00
2022-09-26T19:45:43.393Z,0.05
2022-09-26T19:48:17.229Z,0.00
2022-09-26T19:50:45.661Z,0.00
2022-09-26T19:53:17.807Z,0.00
2022-09-26T19:55:48.777Z,0.00
2022-09-26T19:58:18.397Z,0.00
2022-09-26T20:00:49.235Z,0.08
2022-09-26T20:03:26.804Z,0.10
2022-09-26T20:05:53.548Z,0.00
2022-09-26T20:08:22.891Z,0.00
2022-09-26T20:10:50.279Z,0.00
2022-09-26T20:13:17.131Z,0.00
2022-09-26T20:15:44.491Z,0.10
2022-09-26T20:18:24.061Z,0.10
2022-09-26T20:20:54.493Z,0.08
2022-09-26T20:23:24.385Z,0.00
2022-09-26T20:25:53.412Z,0.00
2022-09-26T20:28:20.190Z,0.00
2022-09-26T20:30:52.905Z,0.00
2022-09-26T20:33:22.431Z,0.00
2022-09-26T20:36:01.709Z,0.00
2022-09-26T20:38:36.691Z,0.00
2022-09-26T20:43:39.763Z,0.00
2022-09-26T20:46:09.755Z,0.00
2022-09-26T20:48:37.294Z,0.00
2022-09-26T20:51:15.206Z,0.00
2022-09-26T20:53:41.772Z,0.00
2022-09-26T20:56:16.893Z,0.00
2022-09-26T20:58:44.343Z,0.00
2022-09-26T21:01:15.589Z,0.00
2022-09-26T21:03:55.231Z,0.00
2022-09-26T21:06:24.760Z,0.10
2022-09-26T21:08:51.483Z,0.00
2022-09-26T21:11:20.087Z,0.00
2022-09-26T21:13:47.433Z,0.00
2022-09-26T21:16:16.543Z,0.00
2022-09-26T21:18:45.143Z,0.00
2022-09-26T21:21:26.560Z,0.00
2022-09-26T21:24:00.215Z,0.00
2022-09-26T21:26:29.945Z,0.00
2022-09-26T21:28:56.600Z,0.00
2022-09-26T21:31:28.484Z,0.00
2022-09-26T21:33:57.860Z,0.00
2022-09-26T21:36:32.662Z,0.00
2022-09-26T21:39:01.778Z,0.00
2022-09-26T21:41:29.416Z,0.00
2022-09-26T21:44:01.330Z,0.00
2022-09-26T21:46:27.929Z,0.00
2022-09-26T21:48:55.575Z,0.00
2022-09-26T21:51:25.458Z,0.00
2022-09-26T21:54:07.030Z,0.00
2022-09-26T21:56:43.035Z,0.00
2022-09-26T21:59:09.620Z,0.00
2022-09-26T22:01:36.207Z,0.00
2022-09-26T22:04:02.805Z,0.00
2022-09-26T22:06:29.314Z,0.00
2022-09-26T22:08:55.849Z,0.00
2022-09-26T22:11:22.367Z,0.00
2022-09-26T22:13:48.936Z,0.00
2022-09-26T22:16:15.892Z,0.00
2022-09-26T22:18:42.600Z,0.00
2022-09-26T22:21:10.884Z,0.00
2022-09-26T22:23:37.917Z,0.00
2022-09-26T22:26:04.958Z,0.00
2022-09-26T22:28:31.584Z,0.00
2022-09-26T22:31:05.172Z,0.00
2022-09-26T22:35:58.818Z,0.00
2022-09-26T22:38:25.582Z,0.00
2022-09-26T22:41:03.309Z,0.00
2022-09-26T22:43:31.074Z,0.00
2022-09-26T22:46:06.519Z,0.00
2022-09-26T22:48:34.116Z,0.00
2022-09-26T22:51:01.086Z,0.00
2022-09-26T22:53:29.896Z,0.00
2022-09-26T22:55:57.659Z,0.00
2022-09-26T22:58:26.067Z,0.00
2022-09-26T23:00:52.672Z,0.00
2022-09-26T23:03:19.251Z,0.00
2022-09-26T23:05:51.157Z,0.00
2022-09-26T23:08:17.807Z,0.00
2022-09-26T23:10:55.480Z,0.00
2022-09-26T23:13:24.884Z,0.00
2022-09-26T23:15:51.450Z,0.00
2022-09-26T23:18:18.184Z,0.00
2022-09-26T23:20:45.194Z,0.00
2022-09-26T23:23:13.783Z,0.00
2022-09-26T23:25:48.166Z,0.00
2022-09-26T23:28:16.081Z,0.00
2022-09-26T23:30:43.960Z,0.00
2022-09-26T23:33:10.672Z,0.00
2022-09-26T23:35:37.306Z,0.00
2022-09-26T23:38:05.394Z,0.00
2022-09-26T23:40:32.505Z,0.00
2022-09-26T23:42:59.219Z,0.00
2022-09-26T23:45:26.875Z,0.00
2022-09-26T23:47:53.937Z,0.00
2022-09-26T23:50:20.915Z,0.00
2022-09-26T23:52:47.450Z,0.10
2022-09-26T23:55:14.086Z,0.00
2022-09-26T23:57:40.854Z,0.00
